Time;durP1;ratioP1;P1;durP2;ratioP2;P2;SDS_P1;SDS_P2;PMS_P1;PMS_P2;Temp;Humidity;BMP_temperature;BMP_pressure;BME280_temperature;BME280_humidity;BME280_pressure;Samples;Min_cycle;Max_cycle;Signal;HPM_P1;HPM_P2
2023/05/12 00:00:51;;;;;;;16.23;14.93;;;14.10;99.90;;;;;;4976364;28;20466;-71
2023/05/12 00:03:19;;;;;;;16.67;15.37;;;14.00;99.90;;;;;;4974894;28;20441;-71
2023/05/12 00:05:47;;;;;;;16.07;14.77;;;14.00;99.90;;;;;;4975943;28;20462;-71
2023/05/12 00:08:15;;;;;;;16.80;15.37;;;14.00;99.90;;;;;;4976009;28;20798;-71
2023/05/12 00:10:43;;;;;;;15.70;14.50;;;14.00;99.90;;;;;;4974713;28;20445;-71
2023/05/12 00:13:12;;;;;;;16.13;14.80;;;14.00;99.90;;;;;;4976236;28;20798;-71
2023/05/12 00:15:42;;;;;;;16.00;14.50;;;13.90;99.90;;;;;;4975707;28;20544;-71
2023/05/12 00:18:10;;;;;;;15.60;14.40;;;13.90;99.90;;;;;;4974467;28;20465;-70
2023/05/12 00:20:38;;;;;;;17.53;16.23;;;13.90;99.90;;;;;;4974621;28;20542;-71
2023/05/12 00:23:06;;;;;;;14.97;13.87;;;13.90;99.90;;;;;;4975899;28;20524;-70
2023/05/12 00:25:35;;;;;;;17.00;15.67;;;13.80;99.90;;;;;;4975541;28;20842;-71
2023/05/12 00:28:03;;;;;;;15.07;13.97;;;13.80;99.90;;;;;;4974292;28;20962;-71
2023/05/12 00:30:31;;;;;;;17.50;16.10;;;13.80;99.90;;;;;;4974222;28;20456;-70
2023/05/12 00:33:00;;;;;;;16.33;15.07;;;13.70;99.90;;;;;;4974262;28;20446;-70
2023/05/12 00:35:28;;;;;;;16.67;15.37;;;13.70;99.90;;;;;;4974235;28;20508;-71
2023/05/12 00:37:57;;;;;;;18.13;16.73;;;13.70;99.90;;;;;;4974453;28;20452;-70
2023/05/12 00:40:25;;;;;;;15.70;14.50;;;13.70;99.90;;;;;;4974029;28;20446;-70
2023/05/12 00:42:53;;;;;;;17.23;15.83;;;13.60;99.90;;;;;;4975291;28;20433;-71
2023/05/12 00:45:21;;;;;;;14.87;13.70;;;13.60;99.90;;;;;;4974285;28;20516;-70
2023/05/12 00:47:51;;;;;;;15.20;13.90;;;13.60;99.90;;;;;;4974150;28;20446;-70
2023/05/12 00:50:21;;;;;;;16.57;15.13;;;13.50;99.90;;;;;;4973971;28;20442;-71
2023/05/12 00:52:50;;;;;;;15.83;14.63;;;13.50;99.90;;;;;;4975227;28;20536;-70
2023/05/12 00:55:18;;;;;;;17.93;16.53;;;13.50;99.90;;;;;;4973758;28;20461;-70
2023/05/12 00:57:46;;;;;;;17.17;15.87;;;13.40;99.90;;;;;;4974089;28;20450;-71
2023/05/12 01:00:17;;;;;;;15.73;14.50;;;13.40;99.90;;;;;;4973664;28;20457;-70
2023/05/12 01:02:47;;;;;;;16.43;15.13;;;13.40;99.90;;;;;;4973759;28;20500;-70
2023/05/12 01:05:16;;;;;;;16.43;15.23;;;13.30;99.90;;;;;;4973625;28;20509;-70
2023/05/12 01:07:47;;;;;;;15.47;14.17;;;13.30;99.90;;;;;;4973227;28;20482;-70
2023/05/12 01:10:19;;;;;;;15.97;14.73;;;13.30;99.90;;;;;;4973656;28;20457;-70
2023/05/12 01:12:48;;;;;;;15.20;14.10;;;13.30;99.90;;;;;;4975110;28;20438;-71
2023/05/12 01:15:18;;;;;;;16.57;15.17;;;13.20;99.90;;;;;;4973965;28;20805;-70
2023/05/12 01:17:52;;;;;;;16.77;15.47;;;13.20;99.90;;;;;;4973300;28;20464;-70
2023/05/12 01:20:22;;;;;;;15.97;14.67;;;13.20;99.90;;;;;;4973766;28;20448;-71
2023/05/12 01:22:53;;;;;;;15.90;14.70;;;13.10;99.90;;;;;;4974599;28;20470;-71
2023/05/12 01:25:24;;;;;;;17.73;16.23;;;13.10;99.90;;;;;;4973549;28;20478;-70
2023/05/12 01:27:54;;;;;;;17.13;15.77;;;13.10;99.90;;;;;;4974774;28;20433;-70
2023/05/12 01:30:24;;;;;;;16.90;15.70;;;13.00;99.90;;;;;;4973574;28;20969;-70
2023/05/12 01:32:53;;;;;;;16.23;15.03;;;13.00;99.90;;;;;;4974756;28;20525;-70
2023/05/12 01:35:21;;;;;;;15.93;14.73;;;12.90;99.90;;;;;;4974964;28;20946;-70
2023/05/12 01:37:59;;;;;;;16.30;15.10;;;12.90;99.90;;;;;;4974029;28;20939;-71
2023/05/12 01:40:27;;;;;;;18.63;17.13;;;12.90;99.90;;;;;;4973626;28;20446;-70
2023/05/12 01:42:58;;;;;;;16.60;15.40;;;12.90;99.90;;;;;;4973189;28;20834;-70
2023/05/12 01:45:30;;;;;;;18.63;17.23;;;12.80;99.90;;;;;;4973377;28;20477;-70
2023/05/12 01:47:58;;;;;;;17.97;16.67;;;12.80;99.90;;;;;;4974290;28;20541;-70
2023/05/12 01:50:27;;;;;;;17.53;16.23;;;12.80;99.90;;;;;;4973088;28;20446;-71
2023/05/12 01:52:55;;;;;;;19.83;18.23;;;12.80;99.90;;;;;;4973185;28;20963;-71
2023/05/12 01:55:24;;;;;;;17.90;16.57;;;12.70;99.90;;;;;;4972981;28;20569;-70
2023/05/12 01:57:56;;;;;;;18.63;17.23;;;12.70;99.90;;;;;;4973098;28;20529;-71
2023/05/12 02:00:26;;;;;;;17.93;16.30;;;12.70;99.90;;;;;;4973186;28;20814;-70
2023/05/12 02:02:56;;;;;;;17.40;16.10;;;12.70;99.90;;;;;;4972951;28;20536;-70
2023/05/12 02:05:25;;;;;;;18.00;16.60;;;12.70;99.90;;;;;;4974000;28;20461;-70
2023/05/12 02:07:53;;;;;;;18.33;16.93;;;12.60;99.90;;;;;;4972914;28;20481;-71
2023/05/12 02:10:21;;;;;;;18.60;17.00;;;12.60;99.90;;;;;;4973991;28;20478;-71
2023/05/12 02:12:50;;;;;;;18.40;17.00;;;12.60;99.90;;;;;;4972860;28;20866;-70
2023/05/12 02:15:18;;;;;;;18.17;16.80;;;12.60;99.90;;;;;;4972726;28;20528;-70
2023/05/12 02:17:52;;;;;;;19.00;17.53;;;12.50;99.90;;;;;;4973016;28;20457;-70
2023/05/12 02:20:21;;;;;;;21.47;19.67;;;12.50;99.90;;;;;;4976716;28;20824;-70
2023/05/12 02:22:49;;;;;;;17.63;16.20;;;12.50;99.90;;;;;;4976681;28;20473;-70
2023/05/12 02:25:18;;;;;;;18.17;16.77;;;12.50;99.90;;;;;;4978067;28;20890;-70
2023/05/12 02:27:46;;;;;;;18.60;17.17;;;12.50;99.90;;;;;;4976609;28;20968;-69
2023/05/12 02:30:16;;;;;;;20.10;18.60;;;12.50;99.90;;;;;;4976718;28;20454;-70
2023/05/12 02:32:44;;;;;;;17.57;16.17;;;12.50;99.90;;;;;;4977679;28;20446;-70
2023/05/12 02:35:14;;;;;;;19.20;17.70;;;12.40;99.90;;;;;;4976472;28;20556;-70
2023/05/12 02:37:42;;;;;;;18.13;16.83;;;12.40;99.90;;;;;;4977671;28;20446;-70
2023/05/12 02:40:11;;;;;;;19.43;17.93;;;12.40;99.90;;;;;;4978102;28;20444;-70
2023/05/12 02:42:42;;;;;;;18.20;16.80;;;12.40;99.90;;;;;;4976458;28;20469;-70
2023/05/12 02:45:11;;;;;;;18.83;17.43;;;12.40;99.90;;;;;;4977899;28;20457;-70
2023/05/12 02:47:40;;;;;;;18.07;16.87;;;12.40;99.90;;;;;;4976199;28;20449;-70
2023/05/12 02:50:09;;;;;;;18.60;17.20;;;12.40;99.90;;;;;;4977482;28;20493;-70
2023/05/12 02:52:39;;;;;;;18.20;16.73;;;12.40;99.90;;;;;;4976337;28;20456;-70
2023/05/12 02:55:08;;;;;;;17.07;15.87;;;12.40;99.90;;;;;;4976462;28;20527;-70
2023/05/12 02:57:36;;;;;;;18.27;16.80;;;12.40;99.90;;;;;;4977360;28;20504;-70
2023/05/12 03:00:05;;;;;;;19.90;18.50;;;12.40;99.90;;;;;;4977217;28;20440;-70
2023/05/12 03:02:38;;;;;;;18.30;17.00;;;12.40;99.90;;;;;;4976917;28;20807;-70
2023/05/12 03:05:09;;;;;;;18.10;16.70;;;12.40;99.90;;;;;;4975852;28;20461;-70
2023/05/12 03:07:38;;;;;;;20.20;18.50;;;12.40;99.90;;;;;;4977774;28;20769;-70
2023/05/12 03:10:08;;;;;;;19.33;17.83;;;12.40;99.90;;;;;;4976012;28;20529;-70
2023/05/12 03:12:37;;;;;;;22.70;21.00;;;12.40;99.90;;;;;;4975705;28;20449;-70
2023/05/12 03:15:05;;;;;;;20.10;18.50;;;12.40;99.90;;;;;;4975628;28;20505;-70
2023/05/12 03:17:33;;;;;;;21.10;19.50;;;12.40;99.90;;;;;;4975537;28;20457;-70
2023/05/12 03:20:02;;;;;;;22.80;21.10;;;12.40;99.90;;;;;;4975834;28;20805;-70
2023/05/12 03:22:30;;;;;;;25.70;23.77;;;12.40;99.90;;;;;;4977170;28;21030;-70
2023/05/12 03:25:00;;;;;;;24.80;23.00;;;12.40;99.90;;;;;;4975505;28;20474;-71
2023/05/12 03:27:28;;;;;;;25.17;23.27;;;12.40;99.90;;;;;;4975749;28;20981;-70
2023/05/12 03:29:56;;;;;;;23.53;21.73;;;12.40;99.90;;;;;;4976559;28;20433;-70
2023/05/12 03:32:24;;;;;;;26.23;24.33;;;12.40;99.90;;;;;;4975425;28;20445;-70
2023/05/12 03:34:53;;;;;;;25.27;23.07;;;12.40;99.90;;;;;;4975273;28;20474;-70
2023/05/12 03:37:21;;;;;;;24.57;22.67;;;12.40;99.90;;;;;;4975346;28;20485;-70
2023/05/12 03:39:50;;;;;;;25.57;23.67;;;12.40;99.90;;;;;;4976524;28;20853;-70
2023/05/12 03:42:19;;;;;;;24.90;22.90;;;12.40;99.90;;;;;;4975244;28;20847;-70
2023/05/12 03:44:47;;;;;;;26.33;24.07;;;12.50;99.90;;;;;;4975122;28;20465;-70
2023/05/12 03:47:15;;;;;;;24.43;22.50;;;12.40;99.90;;;;;;4975060;28;20537;-70
2023/05/12 03:49:44;;;;;;;23.70;21.90;;;12.40;99.90;;;;;;4975034;28;20826;-70
2023/05/12 03:52:12;;;;;;;25.37;23.47;;;12.50;99.90;;;;;;4974991;28;21034;-70
2023/05/12 03:54:40;;;;;;;24.07;22.17;;;12.50;99.90;;;;;;4976474;28;20820;-70
2023/05/12 03:57:08;;;;;;;24.73;22.87;;;12.50;99.90;;;;;;4974877;28;20897;-70
2023/05/12 03:59:38;;;;;;;26.27;24.27;;;12.50;99.90;;;;;;4976169;28;20445;-70
2023/05/12 04:02:10;;;;;;;26.50;24.50;;;12.50;99.90;;;;;;4974753;28;20460;-70
2023/05/12 04:04:39;;;;;;;26.33;24.33;;;12.50;99.90;;;;;;4975039;28;21005;-70
2023/05/12 04:07:07;;;;;;;27.87;25.30;;;12.50;99.90;;;;;;4976469;28;20446;-70
2023/05/12 04:09:36;;;;;;;27.33;25.23;;;12.50;99.90;;;;;;4974909;28;20453;-70
2023/05/12 04:12:05;;;;;;;26.47;24.47;;;12.50;99.90;;;;;;4974999;28;20454;-70
2023/05/12 04:14:33;;;;;;;28.13;26.00;;;12.50;99.90;;;;;;4974711;28;20845;-70
2023/05/12 04:17:11;;;;;;;28.40;25.90;;;12.50;99.90;;;;;;4975845;28;20943;-71
2023/05/12 04:19:40;;;;;;;26.53;24.53;;;12.50;99.90;;;;;;4976277;28;20492;-70
2023/05/12 04:22:08;;;;;;;29.17;26.87;;;12.50;99.90;;;;;;4974368;28;20450;-70
2023/05/12 04:24:38;;;;;;;30.13;27.87;;;12.50;99.90;;;;;;4974409;28;20476;-70
2023/05/12 04:27:06;;;;;;;29.63;27.37;;;12.50;99.90;;;;;;4974391;28;20978;-69
2023/05/12 04:29:36;;;;;;;30.03;27.70;;;12.50;99.90;;;;;;4974515;28;20468;-69
2023/05/12 04:32:04;;;;;;;28.90;26.70;;;12.50;99.90;;;;;;4974251;28;20456;-70
2023/05/12 04:34:36;;;;;;;31.30;28.80;;;12.50;99.90;;;;;;4974666;28;20809;-70
2023/05/12 04:37:04;;;;;;;31.00;28.67;;;12.50;99.90;;;;;;4974240;28;20544;-70
2023/05/12 04:39:33;;;;;;;30.47;28.03;;;12.60;99.90;;;;;;4974142;28;20795;-70
2023/05/12 04:42:01;;;;;;;32.07;29.57;;;12.60;99.90;;;;;;4974864;28;20532;-70
2023/05/12 04:44:32;;;;;;;30.47;28.10;;;12.60;99.90;;;;;;4973963;28;20486;-70
2023/05/12 04:47:00;;;;;;;36.17;33.27;;;12.60;99.90;;;;;;4974000;28;20489;-70
2023/05/12 04:49:30;;;;;;;36.60;33.67;;;12.60;99.90;;;;;;4973896;28;20540;-70
2023/05/12 04:51:59;;;;;;;42.13;38.70;;;12.60;99.90;;;;;;4973887;28;21067;-70
2023/05/12 04:54:27;;;;;;;40.67;37.27;;;12.60;99.90;;;;;;4973773;28;20497;-69
2023/05/12 04:56:56;;;;;;;43.00;39.10;;;12.70;99.90;;;;;;4973862;28;20446;-69
2023/05/12 04:59:24;;;;;;;42.07;38.53;;;12.70;99.90;;;;;;4974885;28;20453;-69
2023/05/12 05:01:54;;;;;;;47.87;43.67;;;12.70;99.90;;;;;;4979227;28;20449;-69
2023/05/12 05:04:22;;;;;;;46.20;42.30;;;12.70;99.90;;;;;;4980224;28;20481;-69
2023/05/12 05:06:50;;;;;;;47.20;43.30;;;12.80;99.90;;;;;;4978929;28;21015;-69
2023/05/12 05:09:21;;;;;;;48.50;44.23;;;12.80;99.90;;;;;;4978642;28;20470;-69
2023/05/12 05:11:50;;;;;;;46.43;42.30;;;12.80;99.90;;;;;;4978575;28;20951;-69
2023/05/12 05:14:18;;;;;;;45.10;41.30;;;12.80;99.90;;;;;;4978353;28;20469;-69
2023/05/12 05:16:47;;;;;;;48.67;44.67;;;12.80;99.90;;;;;;4979814;28;20450;-70
2023/05/12 05:19:15;;;;;;;49.00;44.80;;;12.90;99.90;;;;;;4978622;28;20525;-69
2023/05/12 05:21:57;;;;;;;49.60;45.40;;;12.90;99.90;;;;;;4975587;28;21005;-69
2023/05/12 05:24:26;;;;;;;46.77;42.90;;;12.90;99.90;;;;;;4974859;28;20516;-70
2023/05/12 05:26:54;;;;;;;48.87;44.83;;;12.90;99.90;;;;;;4975784;28;20512;-70
2023/05/12 05:29:22;;;;;;;48.77;44.70;;;12.90;99.90;;;;;;4977060;28;20923;-70
2023/05/12 05:31:51;;;;;;;52.10;47.40;;;13.00;99.90;;;;;;4976754;28;20450;-70
2023/05/12 05:34:19;;;;;;;51.13;46.77;;;13.00;99.90;;;;;;4975212;28;20533;-70
2023/05/12 05:36:48;;;;;;;53.80;49.10;;;13.00;99.90;;;;;;4973364;28;20468;-70
2023/05/12 05:39:17;;;;;;;53.50;48.90;;;13.10;99.90;;;;;;4973375;28;20549;-70
2023/05/12 05:41:46;;;;;;;50.07;45.87;;;13.10;99.90;;;;;;4974440;28;20794;-70
2023/05/12 05:44:14;;;;;;;49.37;45.27;;;13.10;99.90;;;;;;4973353;28;20508;-70
2023/05/12 05:46:42;;;;;;;49.80;45.40;;;13.10;99.90;;;;;;4973157;28;20481;-70
2023/05/12 05:49:11;;;;;;;50.90;46.53;;;13.20;99.90;;;;;;4974333;28;20806;-70
2023/05/12 05:51:39;;;;;;;48.13;44.13;;;13.20;99.90;;;;;;4976041;28;20508;-70
2023/05/12 05:54:08;;;;;;;47.43;43.37;;;13.20;99.90;;;;;;4976049;28;20450;-70
2023/05/12 05:56:36;;;;;;;45.53;41.87;;;13.30;99.90;;;;;;4976392;28;20460;-70
2023/05/12 05:59:06;;;;;;;47.13;43.03;;;13.30;99.90;;;;;;4975385;28;20884;-70
2023/05/12 06:01:34;;;;;;;46.60;42.67;;;13.30;99.90;;;;;;4973213;28;20561;-70
2023/05/12 06:04:03;;;;;;;40.83;37.53;;;13.40;99.90;;;;;;4974290;28;20476;-70
2023/05/12 06:06:32;;;;;;;43.50;39.90;;;13.40;99.90;;;;;;4973012;28;20537;-71
2023/05/12 06:09:00;;;;;;;45.77;42.00;;;13.40;99.90;;;;;;4973066;28;20458;-70
2023/05/12 06:11:28;;;;;;;44.20;40.50;;;13.50;99.90;;;;;;4974422;28;20433;-70
2023/05/12 06:13:56;;;;;;;43.10;39.67;;;13.50;99.90;;;;;;4973095;28;20458;-70
2023/05/12 06:16:28;;;;;;;41.67;38.47;;;13.50;99.90;;;;;;4973150;28;20989;-71
2023/05/12 06:18:56;;;;;;;42.40;38.60;;;13.50;99.90;;;;;;4972987;28;20445;-70
2023/05/12 06:21:24;;;;;;;42.80;39.33;;;13.60;99.90;;;;;;4972740;28;20500;-70
2023/05/12 06:23:54;;;;;;;41.83;38.37;;;13.60;99.90;;;;;;4972726;28;20839;-70
2023/05/12 06:26:22;;;;;;;41.77;38.47;;;13.60;99.90;;;;;;4972656;28;20438;-70
2023/05/12 06:28:51;;;;;;;40.73;37.43;;;13.70;99.90;;;;;;4972850;28;20553;-71
2023/05/12 06:31:19;;;;;;;38.70;35.57;;;13.70;99.90;;;;;;4972706;28;20468;-70
2023/05/12 06:33:49;;;;;;;35.47;32.67;;;13.70;99.90;;;;;;4972947;28;20472;-70
2023/05/12 06:36:17;;;;;;;36.03;33.23;;;13.80;99.90;;;;;;4972682;28;20881;-70
2023/05/12 06:38:45;;;;;;;36.60;33.70;;;13.80;99.90;;;;;;4973851;28;20528;-70
2023/05/12 06:41:14;;;;;;;35.50;32.73;;;13.80;99.90;;;;;;4972792;28;20449;-70
2023/05/12 06:43:42;;;;;;;35.93;32.93;;;13.90;99.90;;;;;;4973999;28;20466;-70
2023/05/12 06:46:11;;;;;;;35.30;32.50;;;13.90;99.90;;;;;;4973802;28;20462;-70
2023/05/12 06:48:39;;;;;;;33.00;30.47;;;14.00;99.90;;;;;;4972454;28;20552;-70
2023/05/12 06:51:08;;;;;;;34.77;31.97;;;14.10;99.90;;;;;;4972529;28;20449;-70
2023/05/12 06:53:37;;;;;;;34.03;31.23;;;14.20;99.90;;;;;;4973970;28;20550;-71
2023/05/12 06:56:05;;;;;;;32.37;29.70;;;14.30;99.90;;;;;;4972426;28;20461;-71
2023/05/12 06:58:33;;;;;;;32.17;29.47;;;14.50;99.90;;;;;;4973943;28;20942;-71
2023/05/12 07:01:01;;;;;;;29.53;27.13;;;14.70;99.90;;;;;;4972435;28;20445;-71
2023/05/12 07:03:32;;;;;;;30.60;27.57;;;14.80;99.90;;;;;;4973875;28;20446;-70
2023/05/12 07:06:00;;;;;;;35.90;32.20;;;15.00;99.90;;;;;;4976174;28;20458;-71
2023/05/12 07:08:29;;;;;;;26.80;24.67;;;15.10;99.90;;;;;;4976485;28;20573;-72
2023/05/12 07:10:59;;;;;;;28.13;25.70;;;15.20;99.90;;;;;;4978526;28;20441;-71
2023/05/12 07:13:28;;;;;;;27.63;25.50;;;15.30;99.90;;;;;;4982037;28;20445;-70
2023/05/12 07:15:56;;;;;;;24.53;22.60;;;15.30;99.90;;;;;;4978915;28;20493;-71
2023/05/12 07:18:24;;;;;;;24.10;22.20;;;15.40;99.90;;;;;;4977867;28;20544;-71
2023/05/12 07:20:52;;;;;;;23.60;21.80;;;15.40;99.90;;;;;;4977932;28;20437;-71
2023/05/12 07:23:21;;;;;;;21.60;20.00;;;15.60;99.90;;;;;;4977201;28;20468;-71
2023/05/12 07:25:50;;;;;;;23.60;21.67;;;15.60;99.90;;;;;;4977292;28;20510;-71
2023/05/12 07:28:18;;;;;;;20.30;18.80;;;15.70;99.90;;;;;;4977160;28;20965;-72
2023/05/12 07:30:46;;;;;;;22.33;20.40;;;15.80;99.90;;;;;;4975784;28;20428;-71
2023/05/12 07:33:14;;;;;;;21.30;19.00;;;15.80;99.90;;;;;;4977073;28;20437;-71
2023/05/12 07:35:43;;;;;;;21.20;19.57;;;15.90;99.90;;;;;;4976761;28;20450;-72
2023/05/12 07:38:11;;;;;;;19.47;17.97;;;15.90;99.90;;;;;;4977236;28;20459;-71
2023/05/12 07:40:39;;;;;;;19.83;18.23;;;16.00;99.90;;;;;;4976902;28;20434;-71
2023/05/12 07:43:09;;;;;;;19.57;17.97;;;16.00;99.90;;;;;;4977447;28;20487;-71
2023/05/12 07:45:37;;;;;;;19.20;17.80;;;16.20;99.90;;;;;;4976639;28;20564;-71
2023/05/12 07:48:05;;;;;;;18.20;16.80;;;16.30;99.90;;;;;;4977082;28;20469;-71
2023/05/12 07:50:33;;;;;;;16.63;15.27;;;16.40;99.90;;;;;;4976576;28;20423;-72
2023/05/12 07:53:01;;;;;;;16.97;15.50;;;16.50;99.90;;;;;;4976733;28;20442;-71
2023/05/12 07:55:30;;;;;;;15.23;13.90;;;16.60;99.90;;;;;;4976866;28;20940;-71
2023/05/12 07:57:58;;;;;;;16.30;15.00;;;16.60;99.90;;;;;;4975329;28;20424;-71
2023/05/12 08:00:28;;;;;;;14.13;13.00;;;16.60;99.90;;;;;;4975027;28;20438;-71
2023/05/12 08:02:56;;;;;;;14.93;13.60;;;16.70;99.90;;;;;;4977011;28;20444;-71
2023/05/12 08:05:24;;;;;;;14.93;13.60;;;16.70;99.90;;;;;;4976329;28;20546;-71
2023/05/12 08:07:52;;;;;;;16.53;14.97;;;16.70;99.90;;;;;;4975127;28;20425;-71
2023/05/12 08:10:21;;;;;;;15.00;13.70;;;16.70;99.90;;;;;;4976494;28;20541;-70
2023/05/12 08:12:49;;;;;;;15.60;14.37;;;16.70;99.90;;;;;;4976365;28;20434;-70
2023/05/12 08:15:17;;;;;;;17.43;15.93;;;16.80;99.90;;;;;;4976152;28;20484;-70
2023/05/12 08:17:47;;;;;;;15.13;14.00;;;16.90;99.90;;;;;;4974485;28;20531;-71
2023/05/12 08:20:15;;;;;;;15.67;14.37;;;16.90;99.90;;;;;;4976226;28;20467;-70
2023/05/12 08:22:45;;;;;;;16.20;15.00;;;17.00;99.90;;;;;;4976523;28;20436;-70
2023/05/12 08:25:13;;;;;;;15.37;14.17;;;17.10;99.90;;;;;;4975869;28;21040;-70
2023/05/12 08:27:41;;;;;;;15.30;14.00;;;17.20;99.90;;;;;;4975920;28;20482;-70
2023/05/12 08:30:10;;;;;;;15.57;14.27;;;17.20;99.90;;;;;;4976501;28;20849;-70
2023/05/12 08:32:39;;;;;;;15.00;13.90;;;17.30;99.90;;;;;;4976181;28;20832;-70
2023/05/12 08:35:08;;;;;;;15.20;13.93;;;17.40;99.90;;;;;;4975806;28;20489;-70
2023/05/12 08:37:36;;;;;;;15.57;14.40;;;17.60;99.90;;;;;;4975702;28;20415;-70
2023/05/12 08:40:14;;;;;;;16.67;15.27;;;17.70;99.90;;;;;;4974625;28;20428;-70
2023/05/12 08:42:44;;;;;;;15.30;13.80;;;17.90;99.90;;;;;;4974410;28;20807;-70
2023/05/12 08:45:12;;;;;;;16.33;15.03;;;18.00;99.90;;;;;;4976034;28;20452;-70
2023/05/12 08:47:42;;;;;;;13.50;12.50;;;18.20;99.90;;;;;;4975690;28;20475;-70
2023/05/12 08:50:14;;;;;;;14.20;13.00;;;18.30;99.90;;;;;;4975408;28;20397;-70
2023/05/12 08:52:42;;;;;;;14.77;13.53;;;18.40;99.90;;;;;;4975787;28;20402;-70
2023/05/12 08:55:12;;;;;;;14.03;12.90;;;18.50;99.90;;;;;;4975178;28;20468;-70
2023/05/12 08:57:44;;;;;;;12.73;11.63;;;18.50;99.90;;;;;;4975129;28;20426;-71
2023/05/12 09:00:13;;;;;;;12.70;11.57;;;18.70;99.90;;;;;;4975216;28;20422;-70
2023/05/12 09:02:43;;;;;;;11.90;11.00;;;18.70;99.90;;;;;;4975553;28;20856;-71
2023/05/12 09:05:22;;;;;;;13.23;12.00;;;18.90;99.90;;;;;;4975130;28;20552;-70
2023/05/12 09:07:53;;;;;;;12.30;11.20;;;19.00;99.90;;;;;;4975634;28;20388;-70
2023/05/12 09:10:22;;;;;;;12.97;11.87;;;19.10;99.90;;;;;;4975243;28;20438;-70
2023/05/12 09:13:04;;;;;;;12.07;11.10;;;19.10;99.90;;;;;;4973847;28;21009;-70
2023/05/12 09:15:38;;;;;;;10.97;9.97;;;19.20;99.90;;;;;;4973486;28;20436;-70
2023/05/12 09:18:06;;;;;;;11.47;10.43;;;19.30;99.90;;;;;;4973365;28;20956;-70
2023/05/12 09:20:36;;;;;;;11.90;10.80;;;19.40;99.90;;;;;;4974860;28;20460;-70
2023/05/12 09:23:18;;;;;;;11.07;10.17;;;19.50;99.90;;;;;;4973573;28;20454;-70
2023/05/12 09:25:47;;;;;;;10.30;9.40;;;19.60;99.90;;;;;;4974690;28;20480;-70
2023/05/12 09:28:15;;;;;;;10.63;9.60;;;19.70;99.90;;;;;;4972882;28;20517;-70
2023/05/12 09:30:43;;;;;;;9.73;8.90;;;19.80;99.90;;;;;;4974840;28;20448;-70
2023/05/12 09:33:13;;;;;;;11.13;10.13;;;19.90;99.90;;;;;;4973432;28;20448;-70
2023/05/12 09:35:44;;;;;;;10.37;9.37;;;20.10;99.90;;;;;;4974760;28;20488;-70
2023/05/12 09:38:14;;;;;;;9.60;8.80;;;20.20;99.90;;;;;;4974778;28;20509;-70
2023/05/12 09:40:43;;;;;;;10.40;9.40;;;20.30;99.90;;;;;;4973111;28;20458;-70
2023/05/12 09:43:11;;;;;;;10.40;9.30;;;20.40;99.90;;;;;;4973037;28;20508;-69
2023/05/12 09:45:42;;;;;;;9.23;8.47;;;20.50;99.90;;;;;;4974678;28;20478;-69
2023/05/12 09:48:12;;;;;;;9.20;8.40;;;20.60;99.90;;;;;;4973028;28;20500;-70
2023/05/12 09:50:47;;;;;;;9.20;8.30;;;20.60;99.90;;;;;;4974457;28;20461;-71
2023/05/12 09:53:17;;;;;;;8.90;7.73;;;20.70;99.90;;;;;;4974821;28;20866;-70
2023/05/12 09:55:47;;;;;;;9.20;8.07;;;20.80;99.90;;;;;;4974392;28;20492;-71
2023/05/12 09:58:20;;;;;;;9.37;8.00;;;20.80;99.90;;;;;;4973488;28;20536;-70
2023/05/12 10:00:52;;;;;;;9.43;8.53;;;20.90;99.90;;;;;;4973152;28;21002;-71
2023/05/12 10:03:26;;;;;;;9.67;8.80;;;21.00;99.90;;;;;;4974433;28;20532;-70
2023/05/12 10:06:00;;;;;;;7.70;7.10;;;21.10;99.90;;;;;;4974427;28;20481;-70
2023/05/12 10:08:32;;;;;;;7.70;7.00;;;21.20;99.90;;;;;;4973287;28;20993;-70
2023/05/12 10:11:04;;;;;;;7.50;6.70;;;21.30;99.90;;;;;;4973254;28;20446;-70
2023/05/12 10:13:33;;;;;;;9.17;8.07;;;21.40;99.90;;;;;;4973296;28;20450;-70
2023/05/12 10:16:02;;;;;;;9.37;8.47;;;21.40;99.90;;;;;;4973048;28;20476;-70
2023/05/12 10:18:33;;;;;;;11.13;7.93;;;21.50;99.90;;;;;;4974324;28;20465;-71
2023/05/12 10:21:03;;;;;;;8.53;7.60;;;21.60;99.90;;;;;;4974789;28;20887;-71
2023/05/12 10:23:31;;;;;;;7.73;6.43;;;21.60;99.90;;;;;;4973276;28;20456;-72
2023/05/12 10:26:02;;;;;;;6.60;5.93;;;21.60;99.90;;;;;;4974395;28;20474;-73
2023/05/12 10:28:30;;;;;;;6.50;5.90;;;21.70;99.90;;;;;;4973188;28;20437;-73
2023/05/12 10:30:58;;;;;;;7.23;5.87;;;21.70;99.90;;;;;;4974279;28;20504;-73
2023/05/12 10:33:27;;;;;;;6.30;5.70;;;21.80;99.90;;;;;;4974127;28;20973;-73
2023/05/12 10:35:56;;;;;;;7.60;6.60;;;21.80;99.90;;;;;;4974503;28;20458;-73
2023/05/12 10:38:25;;;;;;;381.17;49.83;;;21.80;99.90;;;;;;4974771;28;20437;-73
2023/05/12 10:40:56;;;;;;;8.00;7.23;;;21.90;99.90;;;;;;4975135;28;20465;-74
2023/05/12 10:43:26;;;;;;;208.03;19.07;;;21.90;99.90;;;;;;4980666;28;20429;-74
2023/05/12 10:46:08;;;;;;;8.43;7.67;;;21.90;99.90;;;;;;4977932;28;20501;-74
2023/05/12 10:48:37;;;;;;;8.50;7.10;;;22.00;99.90;;;;;;4978655;28;20418;-74
2023/05/12 10:51:09;;;;;;;7.10;6.50;;;22.00;99.90;;;;;;4978012;28;20446;-74
2023/05/12 10:53:39;;;;;;;8.53;7.83;;;22.00;99.90;;;;;;4978063;28;20421;-74
2023/05/12 10:56:23;;;;;;;8.40;7.70;;;22.10;99.90;;;;;;4976350;28;20536;-74
2023/05/12 10:59:17;;;;;;;12.23;7.60;;;22.20;99.90;;;;;;4977887;28;20480;-74
2023/05/12 11:02:00;;;;;;;6.70;5.90;;;22.20;99.90;;;;;;4977675;28;20816;-74
2023/05/12 11:04:41;;;;;;;7.40;6.70;;;22.30;99.90;;;;;;4979229;28;20552;-73
2023/05/12 11:07:13;;;;;;;8.97;7.07;;;22.40;99.90;;;;;;4977433;28;20994;-73
2023/05/12 11:09:46;;;;;;;7.20;6.27;;;22.50;99.90;;;;;;4976866;28;20445;-74
2023/05/12 11:12:17;;;;;;;7.47;6.77;;;22.60;99.90;;;;;;4978213;28;20426;-74
2023/05/12 11:14:46;;;;;;;6.23;5.73;;;22.60;99.90;;;;;;4977644;28;20464;-74
2023/05/12 11:17:15;;;;;;;6.70;6.10;;;22.60;99.90;;;;;;4977636;28;20453;-74
2023/05/12 11:19:46;;;;;;;11.03;6.00;;;22.60;99.90;;;;;;4977471;28;20442;-73
2023/05/12 11:22:18;;;;;;;7.70;6.00;;;22.60;99.90;;;;;;4977947;28;20509;-73
2023/05/12 11:24:48;;;;;;;6.50;5.90;;;22.60;99.90;;;;;;4977733;28;20489;-73
2023/05/12 11:27:18;;;;;;;7.00;5.63;;;22.50;99.90;;;;;;4975980;28;20497;-74
2023/05/12 11:29:56;;;;;;;7.23;5.97;;;22.50;99.90;;;;;;4977173;28;20422;-74
2023/05/12 11:32:24;;;;;;;6.40;5.80;;;22.50;99.90;;;;;;4977388;28;20839;-73
2023/05/12 11:34:52;;;;;;;7.00;6.27;;;22.50;99.90;;;;;;4976830;28;20462;-73
2023/05/12 11:37:20;;;;;;;8.13;6.60;;;22.50;99.90;;;;;;4976916;28;20473;-74
2023/05/12 11:39:51;;;;;;;7.57;6.87;;;22.40;99.90;;;;;;4977315;28;20867;-74
2023/05/12 11:42:19;;;;;;;6.83;5.97;;;22.40;99.90;;;;;;4977622;28;20896;-74
2023/05/12 11:44:54;;;;;;;7.43;6.20;;;22.40;99.90;;;;;;4976959;28;20454;-74
2023/05/12 11:47:22;;;;;;;6.20;5.60;;;22.30;99.90;;;;;;4977269;28;20461;-73
2023/05/12 11:49:51;;;;;;;6.77;6.17;;;22.40;99.90;;;;;;4977258;28;20819;-74
2023/05/12 11:52:21;;;;;;;6.53;6.03;;;22.50;99.90;;;;;;4976428;28;20452;-73
2023/05/12 11:54:52;;;;;;;7.50;5.87;;;22.50;99.90;;;;;;4975414;28;20982;-74
2023/05/12 11:57:27;;;;;;;5.87;5.27;;;22.50;99.90;;;;;;4976638;28;20418;-74
2023/05/12 12:00:00;;;;;;;5.67;5.07;;;22.40;99.90;;;;;;4976540;28;20487;-74
2023/05/12 12:02:28;;;;;;;8.53;5.10;;;22.50;99.90;;;;;;4976548;28;20529;-74
2023/05/12 12:04:57;;;;;;;5.90;5.27;;;22.60;99.90;;;;;;4976372;28;20508;-74
2023/05/12 12:07:32;;;;;;;5.57;4.97;;;22.60;99.90;;;;;;4976743;28;20528;-74
2023/05/12 12:10:12;;;;;;;7.17;5.60;;;22.70;99.90;;;;;;4975162;28;21033;-74
2023/05/12 12:12:40;;;;;;;5.80;4.60;;;22.80;99.90;;;;;;4976443;28;20462;-74
2023/05/12 12:15:09;;;;;;;5.00;4.33;;;22.70;99.90;;;;;;4976222;28;20472;-74
2023/05/12 12:17:38;;;;;;;5.93;4.93;;;22.70;99.90;;;;;;4975244;28;20534;-74
2023/05/12 12:20:08;;;;;;;5.97;4.47;;;22.70;99.90;;;;;;4976708;28;20441;-74
2023/05/12 12:22:36;;;;;;;5.63;4.40;;;22.70;99.90;;;;;;4976091;28;20438;-74
2023/05/12 12:25:05;;;;;;;5.43;4.93;;;22.60;99.90;;;;;;4976099;28;20461;-74
2023/05/12 12:27:35;;;;;;;5.90;5.40;;;22.60;99.80;;;;;;4974648;28;20474;-74
2023/05/12 12:30:03;;;;;;;5.73;5.20;;;22.60;99.80;;;;;;4976256;28;20758;-74
2023/05/12 12:32:31;;;;;;;6.03;5.43;;;22.50;99.70;;;;;;4975879;28;20843;-74
2023/05/12 12:35:01;;;;;;;8.00;5.60;;;22.40;99.70;;;;;;4975751;28;20876;-75
2023/05/12 12:37:29;;;;;;;6.30;5.70;;;22.40;99.80;;;;;;4975922;28;20422;-74
2023/05/12 12:39:57;;;;;;;6.43;5.40;;;22.40;99.90;;;;;;4974503;28;20442;-74
2023/05/12 12:42:25;;;;;;;5.63;5.00;;;22.40;99.80;;;;;;4975729;28;20441;-74